sensor_id;sensor_type;location;lat;lon;timestamp;pressure;altitude;pressure_sealevel;temperature;humidity
9059;BME280;4564;42.034;25.834;2023-10-08T00:02:03;100440.97;;;11.62;88.23
9059;BME280;4564;42.034;25.834;2023-10-08T00:04:32;100441.91;;;11.69;88.98
9059;BME280;4564;42.034;25.834;2023-10-08T00:07:02;100433.03;;;11.60;88.38
9059;BME280;4564;42.034;25.834;2023-10-08T00:09:32;100437.63;;;11.60;89.34
9059;BME280;4564;42.034;25.834;2023-10-08T00:12:01;100438.34;;;11.68;88.48
9059;BME280;4564;42.034;25.834;2023-10-08T00:14:28;100442.94;;;11.68;88.47
9059;BME280;4564;42.034;25.834;2023-10-08T00:16:55;100435.63;;;11.68;88.53
9059;BME280;4564;42.034;25.834;2023-10-08T00:19:21;100434.06;;;11.74;88.26
9059;BME280;4564;42.034;25.834;2023-10-08T00:21:51;100426.84;;;11.81;87.42
9059;BME280;4564;42.034;25.834;2023-10-08T00:24:18;100427.88;;;11.80;87.33
9059;BME280;4564;42.034;25.834;2023-10-08T00:26:52;100424.69;;;11.76;86.75
9059;BME280;4564;42.034;25.834;2023-10-08T00:29:19;100417.34;;;11.77;86.27
9059;BME280;4564;42.034;25.834;2023-10-08T00:31:47;100422.03;;;11.83;86.63
9059;BME280;4564;42.034;25.834;2023-10-08T00:34:15;100420.38;;;11.82;86.15
9059;BME280;4564;42.034;25.834;2023-10-08T00:36:45;100408.25;;;11.85;85.58
9059;BME280;4564;42.034;25.834;2023-10-08T00:39:14;100412.41;;;11.81;86.02
9059;BME280;4564;42.034;25.834;2023-10-08T00:41:48;100419.03;;;11.78;85.95
9059;BME280;4564;42.034;25.834;2023-10-08T00:44:16;100407.22;;;11.86;85.96
9059;BME280;4564;42.034;25.834;2023-10-08T00:46:48;100412.06;;;11.90;85.48
9059;BME280;4564;42.034;25.834;2023-10-08T00:49:16;100407.94;;;11.94;85.79
9059;BME280;4564;42.034;25.834;2023-10-08T00:52:00;100404.31;;;12.08;85.19
9059;BME280;4564;42.034;25.834;2023-10-08T00:54:51;100397.56;;;12.04;85.53
9059;BME280;4564;42.034;25.834;2023-10-08T00:57:33;100402.13;;;11.97;85.32
9059;BME280;4564;42.034;25.834;2023-10-08T01:00:00;100396.97;;;11.88;85.41
9059;BME280;4564;42.034;25.834;2023-10-08T01:02:29;100396.94;;;11.81;85.56
9059;BME280;4564;42.034;25.834;2023-10-08T01:05:10;100400.69;;;11.80;86.38
9059;BME280;4564;42.034;25.834;2023-10-08T01:07:37;100400.69;;;11.80;85.46
9059;BME280;4564;42.034;25.834;2023-10-08T01:10:11;100398.72;;;11.74;85.62
9059;BME280;4564;42.034;25.834;2023-10-08T01:12:42;100396.38;;;11.71;85.70
9059;BME280;4564;42.034;25.834;2023-10-08T01:15:20;100401.25;;;11.61;85.44
9059;BME280;4564;42.034;25.834;2023-10-08T01:17:53;100404.09;;;11.53;86.08
9059;BME280;4564;42.034;25.834;2023-10-08T01:20:25;100394.63;;;11.49;85.90
9059;BME280;4564;42.034;25.834;2023-10-08T01:23:01;100395.50;;;11.34;85.91
9059;BME280;4564;42.034;25.834;2023-10-08T01:25:30;100394.31;;;11.22;85.80
9059;BME280;4564;42.034;25.834;2023-10-08T01:27:56;100388.03;;;11.22;86.61
9059;BME280;4564;42.034;25.834;2023-10-08T01:30:26;100388.66;;;11.24;86.48
9059;BME280;4564;42.034;25.834;2023-10-08T01:33:00;100388.28;;;11.12;85.97
9059;BME280;4564;42.034;25.834;2023-10-08T01:35:29;100382.03;;;10.97;85.79
9059;BME280;4564;42.034;25.834;2023-10-08T01:37:57;100387.47;;;10.97;85.74
9059;BME280;4564;42.034;25.834;2023-10-08T01:40:26;100389.06;;;10.91;85.09
9059;BME280;4564;42.034;25.834;2023-10-08T01:42:54;100384.19;;;10.87;85.49
9059;BME280;4564;42.034;25.834;2023-10-08T01:45:21;100381.47;;;10.87;84.93
9059;BME280;4564;42.034;25.834;2023-10-08T01:47:50;100387.75;;;10.87;85.21
9059;BME280;4564;42.034;25.834;2023-10-08T01:50:18;100382.91;;;10.83;85.03
9059;BME280;4564;42.034;25.834;2023-10-08T01:52:47;100384.47;;;10.92;84.96
9059;BME280;4564;42.034;25.834;2023-10-08T01:55:14;100381.28;;;11.03;85.10
9059;BME280;4564;42.034;25.834;2023-10-08T01:57:44;100380.00;;;10.99;84.80
9059;BME280;4564;42.034;25.834;2023-10-08T02:00:12;100362.41;;;10.95;84.91
9059;BME280;4564;42.034;25.834;2023-10-08T02:02:39;100370.91;;;10.92;85.40
9059;BME280;4564;42.034;25.834;2023-10-08T02:05:06;100366.50;;;10.91;85.89
9059;BME280;4564;42.034;25.834;2023-10-08T02:07:33;100375.13;;;10.94;86.20
9059;BME280;4564;42.034;25.834;2023-10-08T02:10:00;100368.84;;;10.94;85.62
9059;BME280;4564;42.034;25.834;2023-10-08T02:12:26;100366.03;;;10.87;85.65
9059;BME280;4564;42.034;25.834;2023-10-08T02:14:54;100366.31;;;10.92;85.92
9059;BME280;4564;42.034;25.834;2023-10-08T02:17:21;100364.63;;;10.91;85.68
9059;BME280;4564;42.034;25.834;2023-10-08T02:19:48;100361.19;;;10.83;86.65
9059;BME280;4564;42.034;25.834;2023-10-08T02:22:14;100359.13;;;10.85;87.09
9059;BME280;4564;42.034;25.834;2023-10-08T02:24:42;100361.06;;;10.91;87.47
9059;BME280;4564;42.034;25.834;2023-10-08T02:27:08;100350.78;;;11.01;87.34
9059;BME280;4564;42.034;25.834;2023-10-08T02:29:35;100353.28;;;11.03;87.75
9059;BME280;4564;42.034;25.834;2023-10-08T02:32:03;100340.47;;;11.11;87.20
9059;BME280;4564;42.034;25.834;2023-10-08T02:34:31;100336.69;;;11.12;87.20
9059;BME280;4564;42.034;25.834;2023-10-08T02:36:57;100339.31;;;11.20;86.38
9059;BME280;4564;42.034;25.834;2023-10-08T02:39:24;100332.69;;;11.08;85.92
9059;BME280;4564;42.034;25.834;2023-10-08T02:41:52;100330.81;;;11.09;86.20
9059;BME280;4564;42.034;25.834;2023-10-08T02:44:20;100321.28;;;10.98;87.30
9059;BME280;4564;42.034;25.834;2023-10-08T02:46:48;100325.88;;;10.83;88.23
9059;BME280;4564;42.034;25.834;2023-10-08T02:49:16;100325.91;;;10.68;88.70
9059;BME280;4564;42.034;25.834;2023-10-08T02:51:45;100321.84;;;10.64;89.10
9059;BME280;4564;42.034;25.834;2023-10-08T02:54:12;100316.16;;;10.74;89.18
9059;BME280;4564;42.034;25.834;2023-10-08T02:56:42;100324.59;;;10.79;88.79
9059;BME280;4564;42.034;25.834;2023-10-08T02:59:10;100321.31;;;10.83;88.27
9059;BME280;4564;42.034;25.834;2023-10-08T03:01:37;100325.97;;;10.89;87.33
9059;BME280;4564;42.034;25.834;2023-10-08T03:04:05;100337.28;;;10.93;87.08
9059;BME280;4564;42.034;25.834;2023-10-08T03:06:41;100340.47;;;10.82;85.24
9059;BME280;4564;42.034;25.834;2023-10-08T03:09:08;100338.06;;;10.58;85.57
9059;BME280;4564;42.034;25.834;2023-10-08T03:11:34;100344.00;;;10.38;86.54
9059;BME280;4564;42.034;25.834;2023-10-08T03:14:02;100335.00;;;10.23;87.37
9059;BME280;4564;42.034;25.834;2023-10-08T03:16:30;100339.81;;;10.13;88.55
9059;BME280;4564;42.034;25.834;2023-10-08T03:19:00;100344.41;;;10.13;88.66
9059;BME280;4564;42.034;25.834;2023-10-08T03:21:26;100348.50;;;10.08;87.69
9059;BME280;4564;42.034;25.834;2023-10-08T03:24:08;100344.28;;;9.83;88.55
9059;BME280;4564;42.034;25.834;2023-10-08T03:26:54;100351.06;;;9.87;89.22
9059;BME280;4564;42.034;25.834;2023-10-08T03:29:31;100342.97;;;9.79;89.75
9059;BME280;4564;42.034;25.834;2023-10-08T03:31:58;100351.06;;;9.64;91.64
9059;BME280;4564;42.034;25.834;2023-10-08T03:34:24;100346.63;;;9.72;92.19
9059;BME280;4564;42.034;25.834;2023-10-08T03:36:54;100347.31;;;9.65;92.28
9059;BME280;4564;42.034;25.834;2023-10-08T03:39:32;100345.25;;;9.67;92.59
9059;BME280;4564;42.034;25.834;2023-10-08T03:42:19;100348.06;;;9.82;92.63
9059;BME280;4564;42.034;25.834;2023-10-08T03:44:46;100339.53;;;9.85;92.50
9059;BME280;4564;42.034;25.834;2023-10-08T03:47:16;100344.78;;;9.87;92.14
9059;BME280;4564;42.034;25.834;2023-10-08T03:49:44;100344.97;;;9.85;91.80
9059;BME280;4564;42.034;25.834;2023-10-08T03:52:11;100341.78;;;9.82;92.18
9059;BME280;4564;42.034;25.834;2023-10-08T03:54:40;100339.59;;;9.77;92.89
9059;BME280;4564;42.034;25.834;2023-10-08T03:57:13;100335.44;;;9.89;93.08
9059;BME280;4564;42.034;25.834;2023-10-08T03:59:44;100345.25;;;9.90;93.00
9059;BME280;4564;42.034;25.834;2023-10-08T04:02:13;100348.28;;;9.95;93.36
9059;BME280;4564;42.034;25.834;2023-10-08T04:04:49;100347.97;;;9.90;93.67
9059;BME280;4564;42.034;25.834;2023-10-08T04:07:17;100344.72;;;9.95;94.60
9059;BME280;4564;42.034;25.834;2023-10-08T04:10:06;100336.53;;;10.03;93.66
9059;BME280;4564;42.034;25.834;2023-10-08T04:13:04;100340.25;;;10.02;92.92
9059;BME280;4564;42.034;25.834;2023-10-08T04:15:34;100345.84;;;10.00;93.18
9059;BME280;4564;42.034;25.834;2023-10-08T04:18:05;100350.16;;;10.09;92.83
9059;BME280;4564;42.034;25.834;2023-10-08T04:20:32;100343.19;;;10.15;92.09
9059;BME280;4564;42.034;25.834;2023-10-08T04:23:04;100348.41;;;10.02;92.36
9059;BME280;4564;42.034;25.834;2023-10-08T04:25:32;100348.16;;;9.89;92.04
9059;BME280;4564;42.034;25.834;2023-10-08T04:28:00;100339.72;;;9.84;92.64
9059;BME280;4564;42.034;25.834;2023-10-08T04:30:27;100338.66;;;9.93;92.94
9059;BME280;4564;42.034;25.834;2023-10-08T04:32:58;100347.44;;;9.95;92.57
9059;BME280;4564;42.034;25.834;2023-10-08T04:35:31;100350.50;;;9.92;92.08
9059;BME280;4564;42.034;25.834;2023-10-08T04:38:02;100343.78;;;9.88;92.29
9059;BME280;4564;42.034;25.834;2023-10-08T04:40:29;100352.94;;;9.87;92.38
9059;BME280;4564;42.034;25.834;2023-10-08T04:43:06;100347.50;;;9.87;92.77
9059;BME280;4564;42.034;25.834;2023-10-08T04:45:35;100351.53;;;9.91;92.53
9059;BME280;4564;42.034;25.834;2023-10-08T04:48:03;100357.25;;;9.96;92.58
9059;BME280;4564;42.034;25.834;2023-10-08T04:50:34;100359.41;;;10.00;92.23
9059;BME280;4564;42.034;25.834;2023-10-08T04:53:02;100358.22;;;10.03;91.91
9059;BME280;4564;42.034;25.834;2023-10-08T04:55:33;100359.72;;;10.05;92.28
9059;BME280;4564;42.034;25.834;2023-10-08T04:57:59;100353.94;;;10.08;92.25
9059;BME280;4564;42.034;25.834;2023-10-08T05:00:31;100351.03;;;10.10;91.91
9059;BME280;4564;42.034;25.834;2023-10-08T05:03:16;100348.94;;;10.20;90.90
9059;BME280;4564;42.034;25.834;2023-10-08T05:05:45;100356.31;;;10.26;90.23
9059;BME280;4564;42.034;25.834;2023-10-08T05:08:21;100349.59;;;10.37;89.98
9059;BME280;4564;42.034;25.834;2023-10-08T05:11:13;100349.84;;;10.50;89.22
9059;BME280;4564;42.034;25.834;2023-10-08T05:13:50;100341.91;;;10.63;88.53
9059;BME280;4564;42.034;25.834;2023-10-08T05:16:29;100350.59;;;10.73;88.25
9059;BME280;4564;42.034;25.834;2023-10-08T05:19:09;100351.06;;;10.91;87.81
9059;BME280;4564;42.034;25.834;2023-10-08T05:22:12;100358.56;;;10.89;87.73
9059;BME280;4564;42.034;25.834;2023-10-08T05:24:43;100357.97;;;11.09;87.73
9059;BME280;4564;42.034;25.834;2023-10-08T05:27:30;100352.53;;;11.09;86.95
9059;BME280;4564;42.034;25.834;2023-10-08T05:30:20;100353.78;;;11.06;86.52
9059;BME280;4564;42.034;25.834;2023-10-08T05:32:55;100363.31;;;11.02;86.50
9059;BME280;4564;42.034;25.834;2023-10-08T05:35:47;100373.53;;;11.00;86.85
9059;BME280;4564;42.034;25.834;2023-10-08T05:38:27;100374.00;;;11.04;87.52
9059;BME280;4564;42.034;25.834;2023-10-08T05:41:14;100368.94;;;11.15;87.47
9059;BME280;4564;42.034;25.834;2023-10-08T05:43:56;100378.91;;;11.29;87.75
9059;BME280;4564;42.034;25.834;2023-10-08T05:46:39;100369.41;;;11.55;87.43
9059;BME280;4564;42.034;25.834;2023-10-08T05:49:15;100369.47;;;11.76;86.38
9059;BME280;4564;42.034;25.834;2023-10-08T05:52:03;100361.16;;;12.05;85.54
9059;BME280;4564;42.034;25.834;2023-10-08T05:54:44;100357.69;;;12.39;84.38
9059;BME280;4564;42.034;25.834;2023-10-08T05:57:33;100355.84;;;12.74;81.52
9059;BME280;4564;42.034;25.834;2023-10-08T06:00:04;100353.59;;;13.19;78.88
9059;BME280;4564;42.034;25.834;2023-10-08T06:02:48;100356.38;;;14.06;75.51
9059;BME280;4564;42.034;25.834;2023-10-08T06:05:29;100364.34;;;15.95;69.03
9059;BME280;4564;42.034;25.834;2023-10-08T06:07:58;100359.28;;;18.24;59.80
9059;BME280;4564;42.034;25.834;2023-10-08T06:10:36;100361.09;;;19.35;53.33
9059;BME280;4564;42.034;25.834;2023-10-08T06:13:10;100359.34;;;20.59;50.69
9059;BME280;4564;42.034;25.834;2023-10-08T06:15:39;100351.28;;;21.51;46.58
9059;BME280;4564;42.034;25.834;2023-10-08T06:18:13;100351.75;;;22.13;45.29
9059;BME280;4564;42.034;25.834;2023-10-08T06:20:42;100354.53;;;22.77;43.42
9059;BME280;4564;42.034;25.834;2023-10-08T06:23:09;100359.06;;;23.45;41.83
9059;BME280;4564;42.034;25.834;2023-10-08T06:25:38;100351.50;;;24.08;40.00
9059;BME280;4564;42.034;25.834;2023-10-08T06:28:14;100359.59;;;23.42;39.79
9059;BME280;4564;42.034;25.834;2023-10-08T06:30:44;100344.75;;;23.58;39.59
9059;BME280;4564;42.034;25.834;2023-10-08T06:33:11;100345.78;;;23.00;39.56
9059;BME280;4564;42.034;25.834;2023-10-08T06:35:38;100346.56;;;24.40;37.57
9059;BME280;4564;42.034;25.834;2023-10-08T06:38:11;100339.03;;;25.12;34.66
9059;BME280;4564;42.034;25.834;2023-10-08T06:40:40;100345.94;;;25.19;34.26
9059;BME280;4564;42.034;25.834;2023-10-08T06:43:06;100344.00;;;25.89;32.14
9059;BME280;4564;42.034;25.834;2023-10-08T06:45:40;100338.75;;;26.26;31.33
9059;BME280;4564;42.034;25.834;2023-10-08T06:48:07;100343.25;;;26.56;31.27
9059;BME280;4564;42.034;25.834;2023-10-08T06:50:34;100341.00;;;26.92;30.67
9059;BME280;4564;42.034;25.834;2023-10-08T06:53:01;100332.56;;;26.40;30.15
9059;BME280;4564;42.034;25.834;2023-10-08T06:55:32;100338.34;;;26.43;30.20
9059;BME280;4564;42.034;25.834;2023-10-08T06:58:01;100330.88;;;26.39;30.01
9059;BME280;4564;42.034;25.834;2023-10-08T07:00:31;100326.13;;;26.00;31.46
9059;BME280;4564;42.034;25.834;2023-10-08T07:03:05;100325.22;;;26.49;29.56
9059;BME280;4564;42.034;25.834;2023-10-08T07:05:32;100323.69;;;26.95;29.54
9059;BME280;4564;42.034;25.834;2023-10-08T07:08:01;100329.34;;;26.17;30.06
9059;BME280;4564;42.034;25.834;2023-10-08T07:10:33;100325.94;;;26.30;30.96
9059;BME280;4564;42.034;25.834;2023-10-08T07:13:00;100326.66;;;26.75;28.98
9059;BME280;4564;42.034;25.834;2023-10-08T07:15:28;100326.00;;;26.83;30.02
9059;BME280;4564;42.034;25.834;2023-10-08T07:17:55;100321.69;;;26.67;30.44
9059;BME280;4564;42.034;25.834;2023-10-08T07:20:22;100315.84;;;27.21;29.38
9059;BME280;4564;42.034;25.834;2023-10-08T07:22:48;100314.56;;;27.13;29.07
9059;BME280;4564;42.034;25.834;2023-10-08T07:25:19;100317.50;;;27.46;29.01
9059;BME280;4564;42.034;25.834;2023-10-08T07:27:48;100308.75;;;27.34;28.88
9059;BME280;4564;42.034;25.834;2023-10-08T07:30:14;100312.06;;;27.36;29.20
9059;BME280;4564;42.034;25.834;2023-10-08T07:32:54;100299.91;;;27.27;28.22
9059;BME280;4564;42.034;25.834;2023-10-08T07:35:23;100305.72;;;26.78;29.48
9059;BME280;4564;42.034;25.834;2023-10-08T07:37:51;100303.97;;;26.58;30.01
9059;BME280;4564;42.034;25.834;2023-10-08T07:40:19;100298.16;;;26.88;28.96
9059;BME280;4564;42.034;25.834;2023-10-08T07:42:47;100297.91;;;27.08;28.67
9059;BME280;4564;42.034;25.834;2023-10-08T07:45:17;100300.59;;;27.61;27.79
9059;BME280;4564;42.034;25.834;2023-10-08T07:47:47;100295.66;;;28.14;27.47
9059;BME280;4564;42.034;25.834;2023-10-08T07:50:13;100294.34;;;28.44;27.37
9059;BME280;4564;42.034;25.834;2023-10-08T07:52:41;100290.88;;;28.33;27.21
9059;BME280;4564;42.034;25.834;2023-10-08T07:55:09;100299.41;;;28.88;26.38
9059;BME280;4564;42.034;25.834;2023-10-08T07:57:42;100299.94;;;28.07;27.14
9059;BME280;4564;42.034;25.834;2023-10-08T08:00:12;100288.50;;;27.47;27.95
9059;BME280;4564;42.034;25.834;2023-10-08T08:02:48;100289.94;;;26.68;28.76
9059;BME280;4564;42.034;25.834;2023-10-08T08:05:15;100278.22;;;26.08;30.15
9059;BME280;4564;42.034;25.834;2023-10-08T08:07:42;100278.41;;;25.83;30.54
9059;BME280;4564;42.034;25.834;2023-10-08T08:10:11;100271.06;;;25.48;31.06
9059;BME280;4564;42.034;25.834;2023-10-08T08:12:39;100277.22;;;25.45;30.92
9059;BME280;4564;42.034;25.834;2023-10-08T08:15:06;100280.84;;;25.40;30.73
9059;BME280;4564;42.034;25.834;2023-10-08T08:17:41;100269.72;;;25.40;31.30
9059;BME280;4564;42.034;25.834;2023-10-08T08:20:08;100268.13;;;25.29;30.96
9059;BME280;4564;42.034;25.834;2023-10-08T08:22:43;100270.38;;;25.22;30.73
9059;BME280;4564;42.034;25.834;2023-10-08T08:25:15;100260.09;;;25.23;30.99
9059;BME280;4564;42.034;25.834;2023-10-08T08:27:51;100254.13;;;25.44;31.16
9059;BME280;4564;42.034;25.834;2023-10-08T08:30:18;100249.66;;;25.48;30.94
9059;BME280;4564;42.034;25.834;2023-10-08T08:32:48;100248.56;;;25.49;30.81
9059;BME280;4564;42.034;25.834;2023-10-08T08:35:15;100249.16;;;25.41;30.97
9059;BME280;4564;42.034;25.834;2023-10-08T08:37:42;100247.78;;;25.39;30.87
9059;BME280;4564;42.034;25.834;2023-10-08T08:40:11;100243.03;;;25.44;31.06
9059;BME280;4564;42.034;25.834;2023-10-08T08:42:43;100248.59;;;25.44;30.60
9059;BME280;4564;42.034;25.834;2023-10-08T08:45:10;100244.94;;;25.49;30.94
9059;BME280;4564;42.034;25.834;2023-10-08T08:47:39;100236.13;;;25.37;30.79
9059;BME280;4564;42.034;25.834;2023-10-08T08:50:08;100235.88;;;25.28;30.91
9059;BME280;4564;42.034;25.834;2023-10-08T08:52:35;100231.41;;;25.32;31.52
9059;BME280;4564;42.034;25.834;2023-10-08T08:55:03;100229.38;;;25.48;31.68
9059;BME280;4564;42.034;25.834;2023-10-08T08:57:34;100217.38;;;25.63;31.75
9059;BME280;4564;42.034;25.834;2023-10-08T09:00:05;100207.28;;;25.72;30.61
9059;BME280;4564;42.034;25.834;2023-10-08T09:02:36;100203.31;;;25.83;30.60
9059;BME280;4564;42.034;25.834;2023-10-08T09:05:04;100210.81;;;25.82;30.86
9059;BME280;4564;42.034;25.834;2023-10-08T09:07:52;100214.47;;;25.78;30.16
9059;BME280;4564;42.034;25.834;2023-10-08T09:10:20;100200.34;;;25.74;30.63
9059;BME280;4564;42.034;25.834;2023-10-08T09:12:51;100202.75;;;25.81;30.04
9059;BME280;4564;42.034;25.834;2023-10-08T09:15:18;100199.13;;;25.85;30.30
9059;BME280;4564;42.034;25.834;2023-10-08T09:17:47;100190.47;;;25.87;30.28
9059;BME280;4564;42.034;25.834;2023-10-08T09:20:14;100189.88;;;25.95;29.97
9059;BME280;4564;42.034;25.834;2023-10-08T09:22:42;100187.66;;;25.92;29.90
9059;BME280;4564;42.034;25.834;2023-10-08T09:25:10;100194.78;;;26.03;30.05
9059;BME280;4564;42.034;25.834;2023-10-08T09:27:39;100186.78;;;25.97;29.23
9059;BME280;4564;42.034;25.834;2023-10-08T09:30:12;100184.78;;;26.07;29.60
9059;BME280;4564;42.034;25.834;2023-10-08T09:32:43;100181.34;;;26.15;29.46
9059;BME280;4564;42.034;25.834;2023-10-08T09:35:10;100183.00;;;26.16;30.08
9059;BME280;4564;42.034;25.834;2023-10-08T09:37:38;100175.88;;;26.05;29.38
9059;BME280;4564;42.034;25.834;2023-10-08T09:40:06;100176.41;;;26.07;30.26
9059;BME280;4564;42.034;25.834;2023-10-08T09:42:36;100160.47;;;26.13;29.77
9059;BME280;4564;42.034;25.834;2023-10-08T09:45:04;100162.28;;;26.33;29.97
9059;BME280;4564;42.034;25.834;2023-10-08T09:47:31;100153.53;;;26.44;29.86
9059;BME280;4564;42.034;25.834;2023-10-08T09:50:01;100150.19;;;26.42;29.18
9059;BME280;4564;42.034;25.834;2023-10-08T09:52:34;100146.22;;;26.48;29.07
9059;BME280;4564;42.034;25.834;2023-10-08T09:55:06;100136.50;;;26.46;28.89
9059;BME280;4564;42.034;25.834;2023-10-08T09:57:36;100134.75;;;26.55;29.12
9059;BME280;4564;42.034;25.834;2023-10-08T10:00:04;100131.56;;;26.66;28.90
9059;BME280;4564;42.034;25.834;2023-10-08T10:02:32;100134.25;;;26.71;28.34
9059;BME280;4564;42.034;25.834;2023-10-08T10:04:59;100121.63;;;26.79;28.31
9059;BME280;4564;42.034;25.834;2023-10-08T10:07:26;100129.13;;;26.79;28.01
9059;BME280;4564;42.034;25.834;2023-10-08T10:09:55;100121.25;;;26.86;28.36
9059;BME280;4564;42.034;25.834;2023-10-08T10:12:24;100116.41;;;26.96;27.39
9059;BME280;4564;42.034;25.834;2023-10-08T10:14:53;100101.75;;;27.09;27.39
9059;BME280;4564;42.034;25.834;2023-10-08T10:17:21;100107.22;;;27.14;28.19
9059;BME280;4564;42.034;25.834;2023-10-08T10:19:53;100098.88;;;27.14;27.86
9059;BME280;4564;42.034;25.834;2023-10-08T10:22:26;100094.94;;;27.15;27.64
9059;BME280;4564;42.034;25.834;2023-10-08T10:24:54;100088.56;;;27.15;27.52
9059;BME280;4564;42.034;25.834;2023-10-08T10:27:20;100091.47;;;27.24;27.02
9059;BME280;4564;42.034;25.834;2023-10-08T10:29:47;100081.00;;;27.15;27.01
9059;BME280;4564;42.034;25.834;2023-10-08T10:32:15;100091.28;;;27.20;27.57
9059;BME280;4564;42.034;25.834;2023-10-08T10:34:42;100075.06;;;27.22;26.83
9059;BME280;4564;42.034;25.834;2023-10-08T10:37:10;100077.47;;;27.29;26.36
9059;BME280;4564;42.034;25.834;2023-10-08T10:39:50;100078.75;;;27.36;27.03
9059;BME280;4564;42.034;25.834;2023-10-08T10:42:18;100056.03;;;27.43;26.57
9059;BME280;4564;42.034;25.834;2023-10-08T10:44:47;100061.59;;;27.43;27.30
9059;BME280;4564;42.034;25.834;2023-10-08T10:47:17;100053.72;;;27.50;26.21
9059;BME280;4564;42.034;25.834;2023-10-08T10:49:52;100048.25;;;27.59;26.68
9059;BME280;4564;42.034;25.834;2023-10-08T10:52:20;100038.38;;;27.66;25.89
9059;BME280;4564;42.034;25.834;2023-10-08T10:54:57;100036.41;;;27.67;26.30
9059;BME280;4564;42.034;25.834;2023-10-08T10:57:43;100038.38;;;27.66;25.95
9059;BME280;4564;42.034;25.834;2023-10-08T11:00:19;100027.22;;;27.66;26.39
9059;BME280;4564;42.034;25.834;2023-10-08T11:03:06;100020.22;;;27.69;26.11
9059;BME280;4564;42.034;25.834;2023-10-08T11:05:41;100014.63;;;27.69;26.03
9059;BME280;4564;42.034;25.834;2023-10-08T11:08:13;100010.91;;;27.73;25.88
9059;BME280;4564;42.034;25.834;2023-10-08T11:10:41;100013.31;;;27.80;26.25
9059;BME280;4564;42.034;25.834;2023-10-08T11:13:13;100009.78;;;27.74;25.84
9059;BME280;4564;42.034;25.834;2023-10-08T11:15:40;100005.75;;;27.80;26.13
9059;BME280;4564;42.034;25.834;2023-10-08T11:18:09;100001.81;;;27.81;25.60
9059;BME280;4564;42.034;25.834;2023-10-08T11:20:36;100001.31;;;27.79;25.30
9059;BME280;4564;42.034;25.834;2023-10-08T11:23:05;99998.44;;;27.84;25.67
9059;BME280;4564;42.034;25.834;2023-10-08T11:25:52;99980.75;;;27.89;25.75
9059;BME280;4564;42.034;25.834;2023-10-08T11:28:18;99979.75;;;27.85;25.88
9059;BME280;4564;42.034;25.834;2023-10-08T11:30:47;99979.63;;;27.90;25.98
9059;BME280;4564;42.034;25.834;2023-10-08T11:33:18;99978.59;;;28.00;26.25
9059;BME280;4564;42.034;25.834;2023-10-08T11:35:54;99970.22;;;28.00;26.06
9059;BME280;4564;42.034;25.834;2023-10-08T11:38:24;99967.97;;;28.02;26.23
9059;BME280;4564;42.034;25.834;2023-10-08T11:40:52;99965.78;;;27.98;25.55
9059;BME280;4564;42.034;25.834;2023-10-08T11:43:21;99960.09;;;28.04;25.76
9059;BME280;4564;42.034;25.834;2023-10-08T11:45:48;99959.06;;;28.00;25.82
9059;BME280;4564;42.034;25.834;2023-10-08T11:48:15;99958.44;;;28.03;26.06
9059;BME280;4564;42.034;25.834;2023-10-08T11:50:48;99953.28;;;27.96;26.60
9059;BME280;4564;42.034;25.834;2023-10-08T11:53:15;99952.13;;;27.97;26.39
9059;BME280;4564;42.034;25.834;2023-10-08T11:55:44;99946.34;;;27.93;26.69
9059;BME280;4564;42.034;25.834;2023-10-08T11:58:16;99939.22;;;28.01;26.38
9059;BME280;4564;42.034;25.834;2023-10-08T12:00:45;99933.84;;;28.05;25.98
9059;BME280;4564;42.034;25.834;2023-10-08T12:03:17;99931.16;;;28.13;26.76
9059;BME280;4564;42.034;25.834;2023-10-08T12:05:44;99936.97;;;28.17;26.81
9059;BME280;4564;42.034;25.834;2023-10-08T12:08:15;99927.53;;;28.13;26.76
9059;BME280;4564;42.034;25.834;2023-10-08T12:10:42;99921.66;;;28.14;26.70
9059;BME280;4564;42.034;25.834;2023-10-08T12:13:11;99920.31;;;28.12;26.63
9059;BME280;4564;42.034;25.834;2023-10-08T12:15:37;99916.69;;;28.11;26.61
9059;BME280;4564;42.034;25.834;2023-10-08T12:18:06;99913.88;;;28.11;26.42
9059;BME280;4564;42.034;25.834;2023-10-08T12:20:40;99900.34;;;28.18;26.17
9059;BME280;4564;42.034;25.834;2023-10-08T12:23:09;99902.84;;;28.20;26.76
9059;BME280;4564;42.034;25.834;2023-10-08T12:25:37;99891.25;;;28.13;26.67
9059;BME280;4564;42.034;25.834;2023-10-08T12:28:05;99892.31;;;28.17;26.51
9059;BME280;4564;42.034;25.834;2023-10-08T12:30:31;99883.59;;;28.18;26.79
9059;BME280;4564;42.034;25.834;2023-10-08T12:33:06;99882.88;;;28.13;27.10
9059;BME280;4564;42.034;25.834;2023-10-08T12:35:35;99876.16;;;28.14;27.09
9059;BME280;4564;42.034;25.834;2023-10-08T12:38:02;99873.66;;;28.26;26.99
9059;BME280;4564;42.034;25.834;2023-10-08T12:40:30;99875.31;;;28.27;26.93
9059;BME280;4564;42.034;25.834;2023-10-08T12:43:09;99873.97;;;28.24;27.18
9059;BME280;4564;42.034;25.834;2023-10-08T12:45:35;99872.72;;;28.30;27.14
9059;BME280;4564;42.034;25.834;2023-10-08T12:48:03;99873.25;;;28.32;27.16
9059;BME280;4564;42.034;25.834;2023-10-08T12:50:30;99865.81;;;28.28;27.16
9059;BME280;4564;42.034;25.834;2023-10-08T12:53:07;99858.16;;;28.33;26.90
9059;BME280;4564;42.034;25.834;2023-10-08T12:55:36;99861.63;;;28.39;27.14
9059;BME280;4564;42.034;25.834;2023-10-08T12:58:04;99856.81;;;28.53;26.89
9059;BME280;4564;42.034;25.834;2023-10-08T13:00:36;99857.00;;;28.57;26.64
9059;BME280;4564;42.034;25.834;2023-10-08T13:03:06;99856.63;;;28.50;27.09
9059;BME280;4564;42.034;25.834;2023-10-08T13:05:40;99844.63;;;28.49;26.94
9059;BME280;4564;42.034;25.834;2023-10-08T13:08:09;99845.50;;;28.36;26.88
9059;BME280;4564;42.034;25.834;2023-10-08T13:10:38;99835.16;;;28.36;26.92
9059;BME280;4564;42.034;25.834;2023-10-08T13:13:09;99835.47;;;28.35;27.04
9059;BME280;4564;42.034;25.834;2023-10-08T13:15:37;99833.72;;;28.39;27.44
9059;BME280;4564;42.034;25.834;2023-10-08T13:18:04;99829.06;;;28.34;27.64
9059;BME280;4564;42.034;25.834;2023-10-08T13:20:31;99829.41;;;28.33;27.32
9059;BME280;4564;42.034;25.834;2023-10-08T13:22:59;99826.28;;;28.34;27.53